createdAt,value
2023-05-01T00:01:00.980Z,29.40
2023-05-01T00:02:03.285Z,31.90
2023-05-01T00:03:05.604Z,27.83
2023-05-01T00:04:08.143Z,27.37
2023-05-01T00:05:11.275Z,28.37
2023-05-01T00:06:13.802Z,29.10
2023-05-01T00:07:16.632Z,26.50
2023-05-01T00:08:19.384Z,31.10
2023-05-01T00:09:21.667Z,27.87
2023-05-01T00:10:24.016Z,26.97
2023-05-01T00:11:26.675Z,27.60
2023-05-01T00:12:29.028Z,29.17
2023-05-01T00:13:32.370Z,27.27
2023-05-01T00:14:34.618Z,26.57
2023-05-01T00:15:37.042Z,26.40
2023-05-01T00:16:39.415Z,27.07
2023-05-01T00:17:41.744Z,26.77
2023-05-01T00:18:44.315Z,28.10
2023-05-01T00:19:46.649Z,28.07
2023-05-01T00:20:48.925Z,27.33
2023-05-01T00:21:52.723Z,26.70
2023-05-01T00:22:55.654Z,28.27
2023-05-01T00:23:57.963Z,27.47
2023-05-01T00:25:00.392Z,29.07
2023-05-01T00:26:02.885Z,28.37
2023-05-01T00:27:05.217Z,26.83
2023-05-01T00:28:07.824Z,28.90
2023-05-01T00:29:10.133Z,26.77
2023-05-01T00:30:12.660Z,29.27
2023-05-01T00:31:14.986Z,29.43
2023-05-01T00:32:17.489Z,27.33
2023-05-01T00:33:19.833Z,27.47
2023-05-01T00:34:22.463Z,26.70
2023-05-01T00:35:24.812Z,28.50
2023-05-01T00:36:27.085Z,30.80
2023-05-01T00:37:29.329Z,26.10
2023-05-01T00:38:31.839Z,29.13
2023-05-01T00:39:34.132Z,26.57
2023-05-01T00:40:45.785Z,27.90
2023-05-01T00:41:48.202Z,27.53
2023-05-01T00:42:50.496Z,26.10
2023-05-01T00:43:52.733Z,25.03
2023-05-01T00:44:55.006Z,25.70
2023-05-01T00:45:57.343Z,26.93
2023-05-01T00:47:02.454Z,27.33
2023-05-01T00:48:06.040Z,27.87
2023-05-01T00:49:08.354Z,27.73
2023-05-01T00:50:11.281Z,25.70
2023-05-01T00:51:14.162Z,26.53
2023-05-01T00:52:16.777Z,26.00
2023-05-01T00:53:19.243Z,26.13
2023-05-01T00:54:23.326Z,25.70
2023-05-01T00:55:26.932Z,28.37
2023-05-01T00:56:32.307Z,25.33
2023-05-01T00:57:34.759Z,28.10
2023-05-01T00:58:38.509Z,28.40
2023-05-01T00:59:41.561Z,24.47
2023-05-01T01:00:44.453Z,27.30
2023-05-01T01:01:47.562Z,27.07
2023-05-01T01:02:50.290Z,27.77
2023-05-01T01:03:52.772Z,28.13
2023-05-01T01:04:55.377Z,28.00
2023-05-01T01:06:08.557Z,28.70
2023-05-01T01:07:19.447Z,26.80
2023-05-01T01:08:43.729Z,26.93
2023-05-01T01:09:52.249Z,24.27
2023-05-01T01:11:01.837Z,26.63
2023-05-01T01:12:12.844Z,27.40
2023-05-01T01:13:27.690Z,25.80
2023-05-01T01:14:45.695Z,26.87
2023-05-01T01:15:53.568Z,26.33
2023-05-01T01:17:10.784Z,25.20
2023-05-01T01:18:36.654Z,23.73
2023-05-01T01:19:50.828Z,27.87
2023-05-01T01:21:12.954Z,25.50
2023-05-01T01:22:21.315Z,26.93
2023-05-01T01:24:08.669Z,25.43
2023-05-01T01:25:30.186Z,25.33
2023-05-01T01:27:11.494Z,26.87
2023-05-01T01:28:32.976Z,26.80
2023-05-01T01:29:57.633Z,25.87
2023-05-01T01:31:14.078Z,27.67
2023-05-01T01:33:14.231Z,28.77
2023-05-01T01:34:33.617Z,26.33
2023-05-01T01:35:37.109Z,24.73
2023-05-01T01:36:43.987Z,25.20
2023-05-01T01:38:00.742Z,25.40
2023-05-01T01:39:29.171Z,26.43
2023-05-01T01:40:44.173Z,23.53
2023-05-01T01:41:50.664Z,25.97
2023-05-01T01:43:03.189Z,23.47
2023-05-01T01:44:09.160Z,24.33
2023-05-01T01:45:21.534Z,27.57
2023-05-01T01:46:25.625Z,25.73
2023-05-01T01:47:33.349Z,25.07
2023-05-01T01:48:41.654Z,28.30
2023-05-01T01:49:48.517Z,25.57
2023-05-01T01:50:53.637Z,24.67
2023-05-01T01:51:59.165Z,24.20
2023-05-01T01:53:02.565Z,26.10
2023-05-01T01:54:05.744Z,24.63
2023-05-01T01:55:12.484Z,27.13
2023-05-01T01:56:15.892Z,24.90
2023-05-01T01:57:21.019Z,26.13
2023-05-01T01:58:26.514Z,25.97
2023-05-01T01:59:33.696Z,25.03
2023-05-01T02:00:39.597Z,24.43
2023-05-01T02:01:43.325Z,24.93
2023-05-01T02:02:48.066Z,24.93
2023-05-01T02:03:53.429Z,27.10
2023-05-01T02:04:57.381Z,27.80
2023-05-01T02:06:00.850Z,23.57
2023-05-01T02:07:04.602Z,26.13
2023-05-01T02:08:08.646Z,25.87
2023-05-01T02:09:12.674Z,24.43
2023-05-01T02:10:16.351Z,26.40
2023-05-01T02:11:21.328Z,24.93
2023-05-01T02:12:27.116Z,27.57
2023-05-01T02:13:31.634Z,30.50
2023-05-01T02:14:35.507Z,23.23
2023-05-01T02:15:40.445Z,26.10
2023-05-01T02:16:44.187Z,27.30
2023-05-01T02:17:47.804Z,26.07
2023-05-01T02:18:50.724Z,24.27
2023-05-01T02:19:55.658Z,23.40
2023-05-01T02:20:58.969Z,23.97
2023-05-01T02:22:03.096Z,27.20
2023-05-01T02:23:07.991Z,24.50
2023-05-01T02:24:11.981Z,24.03
2023-05-01T02:25:15.233Z,24.53
2023-05-01T02:26:19.035Z,24.30
2023-05-01T02:27:24.469Z,23.10
2023-05-01T02:28:30.081Z,23.43
2023-05-01T02:29:32.366Z,25.70
2023-05-01T02:30:36.475Z,22.93
2023-05-01T02:31:38.910Z,23.27
2023-05-01T02:32:41.529Z,22.47
2023-05-01T02:33:43.828Z,24.40
2023-05-01T02:34:46.177Z,25.67
2023-05-01T02:35:49.787Z,24.03
2023-05-01T02:36:53.910Z,23.20
2023-05-01T02:37:56.753Z,23.70
2023-05-01T02:39:00.229Z,25.00
2023-05-01T02:40:03.891Z,22.47
2023-05-01T02:41:08.829Z,23.47
2023-05-01T02:42:12.883Z,23.77
2023-05-01T02:43:18.880Z,24.30
2023-05-01T02:44:22.593Z,21.47
2023-05-01T02:45:26.069Z,21.57
2023-05-01T02:46:29.738Z,23.87
2023-05-01T02:47:37.386Z,22.77
2023-05-01T02:48:41.300Z,23.17
2023-05-01T02:49:45.081Z,21.33
2023-05-01T02:50:49.497Z,21.70
2023-05-01T02:51:52.579Z,21.77
2023-05-01T02:52:55.192Z,22.70
2023-05-01T02:54:13.932Z,24.27
2023-05-01T02:55:17.614Z,20.97
2023-05-01T02:56:20.195Z,21.73
2023-05-01T02:57:23.655Z,23.83
2023-05-01T02:58:26.411Z,22.03
2023-05-01T02:59:28.750Z,22.70
2023-05-01T03:00:31.035Z,22.90
2023-05-01T03:01:33.923Z,25.73
2023-05-01T03:02:36.438Z,26.83
2023-05-01T03:03:38.780Z,22.27
2023-05-01T03:04:41.219Z,23.17
2023-05-01T03:05:43.683Z,22.83
2023-05-01T03:06:46.138Z,21.97
2023-05-01T03:07:48.657Z,22.87
2023-05-01T03:08:50.970Z,23.30
2023-05-01T03:09:53.300Z,20.10
2023-05-01T03:10:55.614Z,20.00
2023-05-01T03:11:58.147Z,21.40
2023-05-01T03:13:00.891Z,19.30
2023-05-01T03:14:03.204Z,20.87
2023-05-01T03:15:06.162Z,20.93
2023-05-01T03:16:08.617Z,22.93
2023-05-01T03:17:11.020Z,18.23
2023-05-01T03:18:13.459Z,18.67
2023-05-01T03:19:15.799Z,19.07
2023-05-01T03:20:18.213Z,18.47
2023-05-01T03:21:20.824Z,18.10
2023-05-01T03:22:23.220Z,17.60
2023-05-01T03:23:25.995Z,19.53
2023-05-01T03:24:28.466Z,20.37
2023-05-01T03:25:30.787Z,18.43
2023-05-01T03:26:33.326Z,17.50
2023-05-01T03:27:35.628Z,18.43
2023-05-01T03:28:37.993Z,18.20
2023-05-01T03:29:40.310Z,19.97
2023-05-01T03:30:42.810Z,16.53
2023-05-01T03:31:45.346Z,18.07
2023-05-01T03:32:47.900Z,18.57
2023-05-01T03:33:56.829Z,16.90
2023-05-01T03:34:59.213Z,16.17
2023-05-01T03:36:05.829Z,19.60
2023-05-01T03:37:09.702Z,17.33
2023-05-01T03:38:13.003Z,19.07
2023-05-01T03:39:33.823Z,16.73
2023-05-01T03:40:59.594Z,18.07
2023-05-01T03:42:07.505Z,18.23
2023-05-01T03:43:15.602Z,17.80
2023-05-01T03:44:17.941Z,18.60
2023-05-01T03:45:20.671Z,17.37
2023-05-01T03:46:23.765Z,18.67
2023-05-01T03:47:26.365Z,17.20
2023-05-01T03:48:28.924Z,18.07
2023-05-01T03:49:32.012Z,18.90
2023-05-01T03:50:34.312Z,16.30
2023-05-01T03:51:37.065Z,18.47
2023-05-01T03:52:39.410Z,15.93
2023-05-01T03:53:41.750Z,15.90
2023-05-01T03:54:45.889Z,17.87
2023-05-01T03:56:08.597Z,17.73
2023-05-01T03:57:10.999Z,19.30
2023-05-01T03:58:13.425Z,19.33
2023-05-01T03:59:15.899Z,19.77
2023-05-01T04:00:18.393Z,18.17
2023-05-01T04:01:22.612Z,16.73
2023-05-01T04:02:25.164Z,18.20
2023-05-01T04:03:27.614Z,21.90
2023-05-01T04:04:30.390Z,17.60
2023-05-01T04:05:34.350Z,19.43
2023-05-01T04:06:38.457Z,19.17
2023-05-01T04:07:42.279Z,17.90
2023-05-01T04:08:44.732Z,19.13
2023-05-01T04:09:48.581Z,20.40
2023-05-01T04:10:51.148Z,18.10
2023-05-01T04:11:53.561Z,19.23
2023-05-01T04:12:55.858Z,20.57
2023-05-01T04:13:58.147Z,19.13
2023-05-01T04:15:00.752Z,19.67
2023-05-01T04:16:03.389Z,18.90
2023-05-01T04:17:06.426Z,18.53
2023-05-01T04:18:11.771Z,22.13
2023-05-01T04:19:16.193Z,18.57
2023-05-01T04:20:20.839Z,19.77
2023-05-01T04:21:23.302Z,19.30
2023-05-01T04:22:27.734Z,18.27
2023-05-01T04:23:30.007Z,17.57
2023-05-01T04:24:34.671Z,18.70
2023-05-01T04:25:37.339Z,21.57
2023-05-01T04:26:45.799Z,17.87
2023-05-01T04:27:48.209Z,17.63
2023-05-01T04:28:51.221Z,19.67
2023-05-01T04:29:58.271Z,18.63
2023-05-01T04:31:01.091Z,18.93
2023-05-01T04:32:03.556Z,17.43
2023-05-01T04:33:11.704Z,18.23
2023-05-01T04:34:15.235Z,18.37
2023-05-01T04:35:17.519Z,17.13
2023-05-01T04:36:20.524Z,18.43
2023-05-01T04:37:22.859Z,19.60
2023-05-01T04:38:25.184Z,17.07
2023-05-01T04:39:30.595Z,16.77
2023-05-01T04:40:36.125Z,17.73
2023-05-01T04:41:38.369Z,21.90
2023-05-01T04:42:41.369Z,16.83
2023-05-01T04:43:47.238Z,21.30
2023-05-01T04:44:53.195Z,17.07
2023-05-01T04:45:57.092Z,16.70
2023-05-01T04:46:59.475Z,17.03
2023-05-01T04:48:01.908Z,17.67
2023-05-01T04:49:04.265Z,17.03
2023-05-01T04:50:07.137Z,17.93
2023-05-01T04:51:09.517Z,16.90
2023-05-01T04:52:12.712Z,17.40
2023-05-01T04:53:35.367Z,17.80
2023-05-01T04:54:38.484Z,18.37
2023-05-01T04:55:40.980Z,18.20
2023-05-01T04:56:51.360Z,18.37
2023-05-01T04:57:53.690Z,18.23
2023-05-01T04:58:56.307Z,20.10
2023-05-01T05:00:01.487Z,18.50
2023-05-01T05:01:05.529Z,18.53
2023-05-01T05:02:08.995Z,17.03
2023-05-01T05:03:11.412Z,16.73
2023-05-01T05:04:13.830Z,20.63
2023-05-01T05:05:16.228Z,17.63
2023-05-01T05:06:18.540Z,19.67
2023-05-01T05:07:21.398Z,17.10
2023-05-01T05:08:42.756Z,18.33
2023-05-01T05:09:46.118Z,19.00
2023-05-01T05:10:48.442Z,18.70
2023-05-01T05:12:11.221Z,19.97
2023-05-01T05:13:13.891Z,20.83
2023-05-01T05:14:16.347Z,18.63
2023-05-01T05:15:18.768Z,20.10
2023-05-01T05:16:21.094Z,19.73
2023-05-01T05:17:23.496Z,20.10
2023-05-01T05:18:25.923Z,20.07
2023-05-01T05:19:28.244Z,20.13
2023-05-01T05:20:30.657Z,19.97
2023-05-01T05:21:33.203Z,20.33
2023-05-01T05:22:39.013Z,20.97
2023-05-01T05:23:56.319Z,20.77
2023-05-01T05:25:04.545Z,21.90
2023-05-01T05:26:06.960Z,20.27
2023-05-01T05:27:09.548Z,19.40
2023-05-01T05:28:11.842Z,20.40
2023-05-01T05:29:14.617Z,19.30
2023-05-01T05:30:17.126Z,20.87
2023-05-01T05:31:20.948Z,19.97
2023-05-01T05:32:23.927Z,18.90
2023-05-01T05:33:26.452Z,22.17
2023-05-01T05:34:28.712Z,18.20
2023-05-01T05:35:31.386Z,20.57
2023-05-01T05:36:33.936Z,20.73
2023-05-01T05:37:36.227Z,19.73
2023-05-01T05:38:38.897Z,20.23
2023-05-01T05:39:42.776Z,21.27
2023-05-01T05:40:45.206Z,18.50
2023-05-01T05:41:49.419Z,19.43
2023-05-01T05:42:51.940Z,21.10
2023-05-01T05:43:55.607Z,19.60
2023-05-01T05:44:57.965Z,18.67
2023-05-01T05:46:01.109Z,18.43
2023-05-01T05:47:04.878Z,19.17
2023-05-01T05:48:08.671Z,19.60
2023-05-01T05:49:15.599Z,18.63
2023-05-01T05:50:17.976Z,20.00
2023-05-01T05:51:21.856Z,20.80
2023-05-01T05:52:24.143Z,17.83
2023-05-01T05:53:28.088Z,23.30
2023-05-01T05:54:31.530Z,20.57
2023-05-01T05:55:34.009Z,20.07
2023-05-01T05:56:40.500Z,22.77
2023-05-01T05:57:43.254Z,19.13
2023-05-01T05:58:48.806Z,18.97
2023-05-01T05:59:51.412Z,21.10
2023-05-01T06:00:57.546Z,18.93
2023-05-01T06:02:01.039Z,21.40
2023-05-01T06:03:07.630Z,20.43
2023-05-01T06:04:12.088Z,18.60
2023-05-01T06:05:16.213Z,18.13
2023-05-01T06:06:19.903Z,18.83
2023-05-01T06:07:23.250Z,18.83
2023-05-01T06:08:26.115Z,18.70
2023-05-01T06:09:28.479Z,18.87
2023-05-01T06:10:31.693Z,19.90
2023-05-01T06:11:34.046Z,18.27
2023-05-01T06:12:37.880Z,19.10
2023-05-01T06:13:43.599Z,18.73
2023-05-01T06:14:46.052Z,20.33
2023-05-01T06:15:49.201Z,18.90
2023-05-01T06:16:52.072Z,20.07
2023-05-01T06:17:54.500Z,18.60
2023-05-01T06:18:57.318Z,20.10
2023-05-01T06:20:00.840Z,18.23
2023-05-01T06:21:03.727Z,18.70
2023-05-01T06:22:07.922Z,16.60
2023-05-01T06:23:16.600Z,20.13
2023-05-01T06:24:41.744Z,20.60
2023-05-01T06:25:45.591Z,18.73
2023-05-01T06:26:48.243Z,20.23
2023-05-01T06:27:51.512Z,19.43
2023-05-01T06:28:56.449Z,18.43
2023-05-01T06:29:59.539Z,19.40
2023-05-01T06:31:02.044Z,17.38
2023-05-01T06:32:08.263Z,19.43
2023-05-01T06:33:11.051Z,19.13
2023-05-01T06:34:15.390Z,20.33
2023-05-01T06:35:23.912Z,19.70
2023-05-01T06:36:28.094Z,19.03
2023-05-01T06:37:30.690Z,18.77
2023-05-01T06:38:33.344Z,19.70
2023-05-01T06:39:39.278Z,19.13
2023-05-01T06:40:41.886Z,17.65
2023-05-01T06:41:47.248Z,18.85
2023-05-01T06:42:50.282Z,17.17
2023-05-01T06:43:52.849Z,19.75
2023-05-01T06:44:55.117Z,17.73
2023-05-01T06:45:58.187Z,17.65
2023-05-01T06:47:01.990Z,18.92
2023-05-01T06:48:04.962Z,18.35
2023-05-01T06:49:08.088Z,19.83
2023-05-01T06:50:10.803Z,17.63
2023-05-01T06:51:16.174Z,19.73
2023-05-01T06:52:18.908Z,17.23
2023-05-01T06:53:22.679Z,18.92
2023-05-01T06:54:24.985Z,20.02
2023-05-01T06:55:28.453Z,17.27
2023-05-01T06:56:32.558Z,18.40
2023-05-01T06:57:34.913Z,16.45
2023-05-01T06:58:37.619Z,18.17
2023-05-01T06:59:40.521Z,17.38
2023-05-01T07:00:42.865Z,21.40
2023-05-01T07:01:45.486Z,18.27
2023-05-01T07:02:47.879Z,15.95
2023-05-01T07:03:50.211Z,15.88
2023-05-01T07:04:53.466Z,17.83
2023-05-01T07:05:56.216Z,16.20
2023-05-01T07:06:58.648Z,18.52
2023-05-01T07:08:02.082Z,15.43
2023-05-01T07:09:05.970Z,16.83
2023-05-01T07:10:08.917Z,14.75
2023-05-01T07:11:11.227Z,15.57
2023-05-01T07:12:13.687Z,15.43
2023-05-01T07:13:17.597Z,14.20
2023-05-01T07:14:19.848Z,14.80
2023-05-01T07:15:23.721Z,17.52
2023-05-01T07:16:25.996Z,15.23
2023-05-01T07:17:29.728Z,13.80
2023-05-01T07:18:32.279Z,14.30
2023-05-01T07:19:34.967Z,16.08
2023-05-01T07:20:37.213Z,13.77
2023-05-01T07:21:41.140Z,14.07
2023-05-01T07:22:43.794Z,14.50
2023-05-01T07:23:46.550Z,12.57
2023-05-01T07:24:49.047Z,13.52
2023-05-01T07:25:52.066Z,12.50
2023-05-01T07:26:54.302Z,14.00
2023-05-01T07:27:56.801Z,14.15
2023-05-01T07:28:59.060Z,15.02
2023-05-01T07:30:05.310Z,11.15
2023-05-01T07:31:10.219Z,13.25
2023-05-01T07:32:12.541Z,13.63
2023-05-01T07:33:15.066Z,14.05
2023-05-01T07:34:18.397Z,13.93
2023-05-01T07:35:20.689Z,11.45
2023-05-01T07:36:26.659Z,12.13
2023-05-01T07:37:29.011Z,13.13
2023-05-01T07:38:31.493Z,13.52
2023-05-01T07:39:33.771Z,10.13
2023-05-01T07:40:36.844Z,11.55
2023-05-01T07:41:39.151Z,13.43
2023-05-01T07:42:42.095Z,10.70
2023-05-01T07:43:44.363Z,12.57
2023-05-01T07:44:47.106Z,10.65
2023-05-01T07:46:00.653Z,10.65
2023-05-01T07:47:06.551Z,11.77
2023-05-01T07:48:08.884Z,9.68
2023-05-01T07:49:11.176Z,11.18
2023-05-01T07:50:13.503Z,9.68
2023-05-01T07:51:15.721Z,11.30
2023-05-01T07:52:18.070Z,9.30
2023-05-01T07:53:20.599Z,8.30
2023-05-01T07:54:23.075Z,10.48
2023-05-01T07:55:25.512Z,11.18
2023-05-01T07:56:29.293Z,10.05
2023-05-01T07:57:33.711Z,10.85
2023-05-01T07:58:37.844Z,9.43
2023-05-01T07:59:40.080Z,10.60
2023-05-01T08:00:45.168Z,9.73
2023-05-01T08:01:47.592Z,9.75
2023-05-01T08:02:51.950Z,9.80
2023-05-01T08:03:54.369Z,8.80
2023-05-01T08:04:57.271Z,11.02
2023-05-01T08:05:59.618Z,7.93
2023-05-01T08:07:01.903Z,9.73
2023-05-01T08:08:04.430Z,8.55
2023-05-01T08:09:06.733Z,9.05
2023-05-01T08:10:09.458Z,9.77
2023-05-01T08:11:11.889Z,10.18
2023-05-01T08:12:14.319Z,9.07
2023-05-01T08:13:16.652Z,7.93
2023-05-01T08:14:19.592Z,9.20
2023-05-01T08:15:22.068Z,8.57
2023-05-01T08:16:24.594Z,11.45
2023-05-01T08:17:26.903Z,9.15
2023-05-01T08:18:30.035Z,9.65
2023-05-01T08:19:33.523Z,9.80
2023-05-01T08:20:36.699Z,6.88
2023-05-01T08:21:38.996Z,9.65
2023-05-01T08:22:41.268Z,8.82
2023-05-01T08:23:43.491Z,7.18
2023-05-01T08:24:46.028Z,12.13
2023-05-01T08:25:51.159Z,9.15
2023-05-01T08:26:53.484Z,9.07
2023-05-01T08:27:55.849Z,8.82
2023-05-01T08:28:58.199Z,7.75
2023-05-01T08:30:00.630Z,7.05
2023-05-01T08:31:03.857Z,8.63
2023-05-01T08:32:06.172Z,9.80
2023-05-01T08:33:08.586Z,7.43
2023-05-01T08:34:11.025Z,7.25
2023-05-01T08:35:13.284Z,6.38
2023-05-01T08:36:15.665Z,6.47
2023-05-01T08:37:19.308Z,6.93
2023-05-01T08:38:21.569Z,6.53
2023-05-01T08:39:23.846Z,6.65
2023-05-01T08:40:26.547Z,7.28
2023-05-01T08:41:29.383Z,5.55
2023-05-01T08:42:32.350Z,5.97
2023-05-01T08:43:34.818Z,8.35
2023-05-01T08:44:41.341Z,7.15
2023-05-01T08:45:44.738Z,9.05
2023-05-01T08:46:51.010Z,7.50
2023-05-01T08:47:55.464Z,8.80
2023-05-01T08:48:59.635Z,6.82
2023-05-01T08:50:03.758Z,4.80
2023-05-01T08:51:06.416Z,5.68
2023-05-01T08:52:11.731Z,5.88
2023-05-01T08:53:17.456Z,5.53
2023-05-01T08:54:21.054Z,7.03
2023-05-01T08:55:23.676Z,6.72
2023-05-01T08:56:25.952Z,7.30
2023-05-01T08:57:30.833Z,7.18
2023-05-01T08:58:35.624Z,5.85
2023-05-01T08:59:39.069Z,7.15
2023-05-01T09:00:42.965Z,7.15
2023-05-01T09:01:47.401Z,6.88
2023-05-01T09:02:51.968Z,5.85
2023-05-01T09:03:55.576Z,7.47
2023-05-01T09:05:01.221Z,6.55
2023-05-01T09:06:04.352Z,6.50
2023-05-01T09:07:07.368Z,7.38
2023-05-01T09:08:09.672Z,5.93
2023-05-01T09:09:12.120Z,7.03
2023-05-01T09:10:17.411Z,7.03
2023-05-01T09:11:20.524Z,8.27
2023-05-01T09:12:25.853Z,6.57
2023-05-01T09:13:28.187Z,6.93
2023-05-01T09:14:31.818Z,10.10
2023-05-01T09:15:34.335Z,7.50
2023-05-01T09:16:36.974Z,7.65
2023-05-01T09:17:43.083Z,6.18
2023-05-01T09:18:46.888Z,5.82
2023-05-01T09:19:50.339Z,9.13
2023-05-01T09:20:52.901Z,6.15
2023-05-01T09:21:56.101Z,6.18
2023-05-01T09:22:59.376Z,7.68
2023-05-01T09:24:02.915Z,5.70
2023-05-01T09:25:05.582Z,6.07
2023-05-01T09:26:08.659Z,7.78
2023-05-01T09:27:13.471Z,6.63
2023-05-01T09:28:16.076Z,7.07
2023-05-01T09:29:38.347Z,6.88
2023-05-01T09:30:40.772Z,7.10
2023-05-01T09:31:43.127Z,6.55
2023-05-01T09:32:45.661Z,6.72
2023-05-01T09:33:56.374Z,6.72
2023-05-01T09:35:15.430Z,7.20
2023-05-01T09:36:18.540Z,8.10
2023-05-01T09:37:34.293Z,7.40
2023-05-01T09:38:43.621Z,6.63
2023-05-01T09:39:46.029Z,6.13
2023-05-01T09:40:48.667Z,6.75
2023-05-01T09:41:54.916Z,7.60
2023-05-01T09:42:57.362Z,6.85
2023-05-01T09:43:59.844Z,6.85
2023-05-01T09:45:04.485Z,7.25
2023-05-01T09:46:12.127Z,6.78
2023-05-01T09:47:23.125Z,6.68
2023-05-01T09:48:25.780Z,5.97
2023-05-01T09:49:48.437Z,6.47
2023-05-01T09:50:50.697Z,7.00
2023-05-01T09:51:53.055Z,8.23
2023-05-01T09:52:55.511Z,6.65
2023-05-01T09:53:59.692Z,6.22
2023-05-01T09:55:18.307Z,8.88
2023-05-01T09:56:22.110Z,5.20
2023-05-01T09:57:38.482Z,7.75
2023-05-01T09:58:41.150Z,7.78
2023-05-01T09:59:43.475Z,6.38
2023-05-01T10:00:52.097Z,6.88
2023-05-01T10:01:54.954Z,8.30
2023-05-01T10:02:57.521Z,6.43
2023-05-01T10:04:02.561Z,6.30
2023-05-01T10:05:05.984Z,7.13
2023-05-01T10:06:10.033Z,6.95
2023-05-01T10:07:13.862Z,5.85
2023-05-01T10:08:16.767Z,7.95
2023-05-01T10:09:28.987Z,6.28
2023-05-01T10:10:31.437Z,8.90
2023-05-01T10:11:52.300Z,7.22
2023-05-01T10:12:55.098Z,6.82
2023-05-01T10:14:11.476Z,6.53
2023-05-01T10:15:24.492Z,7.72
2023-05-01T10:16:30.551Z,7.80
2023-05-01T10:17:34.213Z,6.93
2023-05-01T10:18:36.834Z,7.68
2023-05-01T10:19:39.090Z,6.30
2023-05-01T10:20:41.507Z,7.22
2023-05-01T10:21:44.265Z,6.63
2023-05-01T10:22:46.779Z,7.00
2023-05-01T10:23:49.131Z,6.32
2023-05-01T10:24:52.734Z,5.53
2023-05-01T10:25:56.935Z,6.05
2023-05-01T10:27:00.238Z,7.63
2023-05-01T10:28:04.948Z,6.70
2023-05-01T10:29:07.395Z,6.95
2023-05-01T10:30:10.464Z,6.18
2023-05-01T10:31:13.501Z,7.70
2023-05-01T10:32:16.125Z,7.95
2023-05-01T10:33:18.662Z,7.70
2023-05-01T10:34:24.171Z,6.85
2023-05-01T10:35:38.355Z,6.32
2023-05-01T10:36:47.625Z,6.07
2023-05-01T10:37:59.904Z,6.10
2023-05-01T10:39:02.273Z,8.65
2023-05-01T10:40:39.981Z,7.93
2023-05-01T10:42:04.005Z,7.68
2023-05-01T10:43:16.319Z,5.78
2023-05-01T10:44:23.697Z,5.80
2023-05-01T10:45:30.284Z,6.10
2023-05-01T10:46:32.664Z,5.90
2023-05-01T10:47:35.497Z,7.82
2023-05-01T10:48:37.729Z,6.55
2023-05-01T10:50:12.458Z,6.45
2023-05-01T10:51:15.928Z,5.25
2023-05-01T10:52:18.205Z,5.68
2023-05-01T10:53:20.566Z,5.43
2023-05-01T10:54:23.960Z,6.50
2023-05-01T10:55:36.841Z,8.38
2023-05-01T10:56:39.065Z,6.50
2023-05-01T10:57:43.915Z,6.20
2023-05-01T10:58:51.709Z,5.20
2023-05-01T11:00:00.481Z,6.18
2023-05-01T11:01:28.196Z,5.05
2023-05-01T11:02:31.044Z,5.90
2023-05-01T11:03:33.541Z,6.38
2023-05-01T11:04:48.639Z,5.90
2023-05-01T11:06:00.149Z,6.47
2023-05-01T11:07:06.008Z,6.22
2023-05-01T11:08:34.091Z,6.05
2023-05-01T11:09:40.403Z,6.03
2023-05-01T11:11:35.194Z,6.03
2023-05-01T11:12:49.341Z,6.53
2023-05-01T11:14:04.390Z,5.22
2023-05-01T11:15:08.497Z,5.28
2023-05-01T11:16:42.383Z,4.30
2023-05-01T11:17:45.775Z,5.43
2023-05-01T11:18:48.228Z,4.55
2023-05-01T11:19:52.633Z,6.15
2023-05-01T11:20:55.083Z,5.78
2023-05-01T11:21:57.583Z,5.95
2023-05-01T11:22:59.880Z,5.80
2023-05-01T11:24:05.426Z,5.65
2023-05-01T11:25:28.033Z,6.32
2023-05-01T11:26:32.476Z,5.53
2023-05-01T11:27:35.125Z,5.45
2023-05-01T11:28:42.187Z,4.63
2023-05-01T11:29:46.367Z,4.45
2023-05-01T11:30:49.318Z,4.60
2023-05-01T11:31:52.364Z,4.63
2023-05-01T11:32:54.935Z,4.53
2023-05-01T11:33:58.698Z,6.07
2023-05-01T11:35:01.160Z,5.85
2023-05-01T11:36:05.143Z,5.97
2023-05-01T11:37:07.478Z,5.07
2023-05-01T11:38:19.515Z,5.45
2023-05-01T11:39:22.366Z,7.20
2023-05-01T11:40:33.126Z,4.25
2023-05-01T11:41:35.547Z,4.10
2023-05-01T11:42:38.517Z,5.60
2023-05-01T11:43:58.642Z,6.47
2023-05-01T11:45:13.467Z,6.55
2023-05-01T11:46:24.117Z,5.18
2023-05-01T11:47:26.712Z,4.75
2023-05-01T11:48:30.399Z,6.88
2023-05-01T11:49:32.926Z,4.72
2023-05-01T11:50:39.202Z,5.65
2023-05-01T11:51:41.678Z,4.32
2023-05-01T11:52:45.111Z,4.28
2023-05-01T11:54:03.888Z,5.40
2023-05-01T11:55:07.415Z,3.88
2023-05-01T11:57:27.896Z,4.75
2023-05-01T11:58:32.923Z,5.30
2023-05-01T11:59:35.234Z,3.97
2023-05-01T12:00:42.187Z,5.22
2023-05-01T12:01:46.550Z,4.82
2023-05-01T12:03:10.401Z,6.15
2023-05-01T12:04:22.882Z,5.03
2023-05-01T12:05:26.878Z,4.07
2023-05-01T12:06:43.920Z,4.65
2023-05-01T12:07:46.665Z,6.60
2023-05-01T12:08:51.586Z,4.78
2023-05-01T12:09:54.138Z,4.93
2023-05-01T12:10:57.567Z,5.28
2023-05-01T12:12:03.999Z,3.80
2023-05-01T12:13:08.697Z,4.43
2023-05-01T12:14:14.194Z,5.32
2023-05-01T12:15:22.730Z,5.32
2023-05-01T12:16:27.894Z,5.43
2023-05-01T12:17:31.071Z,4.78
2023-05-01T12:18:33.689Z,4.97
2023-05-01T12:19:48.957Z,4.15
2023-05-01T12:20:53.326Z,4.72
2023-05-01T12:22:11.104Z,4.15
2023-05-01T12:23:18.652Z,4.03
2023-05-01T12:24:21.200Z,4.40
2023-05-01T12:25:30.366Z,3.90
2023-05-01T12:26:32.829Z,5.07
2023-05-01T12:27:43.668Z,5.75
2023-05-01T12:29:04.422Z,3.95
2023-05-01T12:30:07.652Z,5.30
2023-05-01T12:31:11.056Z,3.70
2023-05-01T12:32:17.436Z,4.75
2023-05-01T12:33:21.375Z,4.72
2023-05-01T12:34:31.951Z,4.00
2023-05-01T12:35:34.723Z,5.22
2023-05-01T12:36:37.740Z,4.82
2023-05-01T12:37:40.245Z,4.93
2023-05-01T12:39:03.109Z,4.53
2023-05-01T12:40:06.493Z,4.85
2023-05-01T12:41:11.939Z,5.55
2023-05-01T12:42:15.604Z,4.40
2023-05-01T12:43:20.025Z,5.65
2023-05-01T12:44:27.595Z,3.90
2023-05-01T12:45:30.106Z,5.70
2023-05-01T12:46:32.595Z,4.40
2023-05-01T12:47:40.737Z,5.07
2023-05-01T12:48:43.229Z,5.65
2023-05-01T12:49:45.862Z,4.57
2023-05-01T12:50:54.766Z,4.18
2023-05-01T12:51:59.504Z,4.95
2023-05-01T12:53:03.334Z,5.78
2023-05-01T12:54:05.853Z,4.63
2023-05-01T12:55:09.284Z,4.32
2023-05-01T12:56:23.831Z,4.88
2023-05-01T12:57:26.912Z,5.15
2023-05-01T12:58:38.890Z,4.22
2023-05-01T12:59:43.671Z,5.07
2023-05-01T13:00:56.091Z,3.70
2023-05-01T13:02:04.329Z,5.07
2023-05-01T13:03:06.953Z,5.15
2023-05-01T13:04:12.107Z,4.45
2023-05-01T13:05:14.533Z,3.97
2023-05-01T13:06:17.159Z,5.38
2023-05-01T13:07:19.826Z,5.50
2023-05-01T13:08:36.683Z,5.32
2023-05-01T13:09:42.091Z,4.10
2023-05-01T13:10:44.834Z,5.40
2023-05-01T13:11:57.028Z,3.90
2023-05-01T13:12:59.559Z,3.00
2023-05-01T13:14:09.123Z,4.38
2023-05-01T13:15:22.084Z,2.83
2023-05-01T13:16:25.353Z,3.60
2023-05-01T13:17:33.084Z,3.33
2023-05-01T13:18:52.547Z,3.90
2023-05-01T13:20:09.175Z,5.28
2023-05-01T13:21:14.848Z,3.00
2023-05-01T13:22:17.367Z,3.17
2023-05-01T13:23:20.855Z,3.55
2023-05-01T13:24:24.087Z,3.13
2023-05-01T13:25:26.964Z,4.45
2023-05-01T13:26:35.416Z,3.28
2023-05-01T13:27:37.952Z,3.03
2023-05-01T13:28:48.694Z,3.30
2023-05-01T13:29:59.957Z,3.60
2023-05-01T13:31:02.876Z,4.65
2023-05-01T13:32:06.546Z,3.67
2023-05-01T13:33:11.142Z,2.97
2023-05-01T13:34:21.702Z,3.72
2023-05-01T13:35:25.851Z,4.30
2023-05-01T13:36:33.461Z,4.18
2023-05-01T13:37:36.610Z,4.20
2023-05-01T13:38:47.366Z,3.25
2023-05-01T13:39:49.896Z,3.53
2023-05-01T13:40:52.290Z,4.43
2023-05-01T13:41:54.756Z,4.80
2023-05-01T13:42:57.386Z,5.35
2023-05-01T13:43:59.731Z,2.60
2023-05-01T13:45:05.909Z,4.03
2023-05-01T13:46:10.048Z,3.33
2023-05-01T13:47:17.786Z,3.30
2023-05-01T13:48:26.446Z,3.05
2023-05-01T13:49:28.867Z,3.00
2023-05-01T13:50:32.245Z,3.67
2023-05-01T13:51:38.041Z,3.17
2023-05-01T13:52:44.393Z,3.40
2023-05-01T13:53:47.029Z,2.72
2023-05-01T13:54:49.833Z,4.28
2023-05-01T13:55:52.261Z,2.72
2023-05-01T13:56:54.859Z,3.35
2023-05-01T13:57:57.634Z,4.55
2023-05-01T13:59:00.880Z,3.10
2023-05-01T14:00:05.432Z,4.38
2023-05-01T14:01:17.299Z,3.15
2023-05-01T14:02:27.757Z,2.75
2023-05-01T14:03:42.738Z,2.65
2023-05-01T14:04:45.211Z,2.30
2023-05-01T14:05:48.172Z,2.70
2023-05-01T14:06:52.267Z,3.00
2023-05-01T14:07:57.144Z,2.80
2023-05-01T14:09:00.673Z,2.80
2023-05-01T14:10:03.909Z,4.47
2023-05-01T14:11:08.068Z,2.90
2023-05-01T14:12:10.739Z,3.80
2023-05-01T14:13:17.088Z,2.83
2023-05-01T14:14:19.995Z,4.03
2023-05-01T14:15:24.572Z,3.83